sensor_id;sensor_type;location;lat;lon;timestamp;P1;durP1;ratioP1;P2;durP2;ratioP2
7675;SDS011;3880;51.464;-2.566;2022-10-13T00:02:36;11.77;;;7.07;;
7675;SDS011;3880;51.464;-2.566;2022-10-13T00:05:08;18.03;;;7.17;;
7675;SDS011;3880;51.464;-2.566;2022-10-13T00:07:38;11.70;;;5.80;;
7675;SDS011;3880;51.464;-2.566;2022-10-13T00:10:19;14.60;;;5.90;;
7675;SDS011;3880;51.464;-2.566;2022-10-13T00:13:06;11.43;;;5.90;;
7675;SDS011;3880;51.464;-2.566;2022-10-13T00:16:06;10.17;;;6.30;;
7675;SDS011;3880;51.464;-2.566;2022-10-13T00:18:34;16.50;;;6.97;;
7675;SDS011;3880;51.464;-2.566;2022-10-13T00:21:05;10.30;;;6.30;;
7675;SDS011;3880;51.464;-2.566;2022-10-13T00:23:33;13.27;;;6.33;;
7675;SDS011;3880;51.464;-2.566;2022-10-13T00:26:05;9.07;;;6.73;;
7675;SDS011;3880;51.464;-2.566;2022-10-13T00:28:35;11.80;;;7.17;;
7675;SDS011;3880;51.464;-2.566;2022-10-13T00:31:03;10.67;;;6.67;;
7675;SDS011;3880;51.464;-2.566;2022-10-13T00:33:39;9.00;;;6.30;;
7675;SDS011;3880;51.464;-2.566;2022-10-13T00:36:06;10.63;;;7.37;;
7675;SDS011;3880;51.464;-2.566;2022-10-13T00:38:34;11.93;;;6.53;;
7675;SDS011;3880;51.464;-2.566;2022-10-13T00:41:01;9.93;;;6.07;;
7675;SDS011;3880;51.464;-2.566;2022-10-13T00:46:22;9.00;;;5.20;;
7675;SDS011;3880;51.464;-2.566;2022-10-13T00:56:18;9.27;;;5.67;;
7675;SDS011;3880;51.464;-2.566;2022-10-13T01:02:06;14.30;;;5.63;;
7675;SDS011;3880;51.464;-2.566;2022-10-13T01:27:22;9.83;;;4.60;;
7675;SDS011;3880;51.464;-2.566;2022-10-13T01:30:11;10.77;;;4.43;;
7675;SDS011;3880;51.464;-2.566;2022-10-13T01:33:24;11.07;;;5.23;;
7675;SDS011;3880;51.464;-2.566;2022-10-13T01:46:06;12.73;;;4.00;;
7675;SDS011;3880;51.464;-2.566;2022-10-13T01:48:42;7.73;;;3.87;;
7675;SDS011;3880;51.464;-2.566;2022-10-13T01:51:11;7.37;;;3.63;;
7675;SDS011;3880;51.464;-2.566;2022-10-13T01:54:02;11.73;;;5.67;;
7675;SDS011;3880;51.464;-2.566;2022-10-13T01:59:48;11.87;;;4.40;;
7675;SDS011;3880;51.464;-2.566;2022-10-13T02:02:17;13.53;;;4.43;;
7675;SDS011;3880;51.464;-2.566;2022-10-13T02:04:53;9.63;;;4.40;;
7675;SDS011;3880;51.464;-2.566;2022-10-13T02:11:13;14.07;;;4.83;;
7675;SDS011;3880;51.464;-2.566;2022-10-13T02:35:08;9.67;;;4.33;;
7675;SDS011;3880;51.464;-2.566;2022-10-13T02:38:06;10.73;;;4.90;;
7675;SDS011;3880;51.464;-2.566;2022-10-13T02:43:45;7.97;;;5.20;;
7675;SDS011;3880;51.464;-2.566;2022-10-13T02:46:12;5.07;;;4.53;;
7675;SDS011;3880;51.464;-2.566;2022-10-13T02:48:43;10.00;;;5.87;;
7675;SDS011;3880;51.464;-2.566;2022-10-13T02:51:14;8.47;;;5.47;;
7675;SDS011;3880;51.464;-2.566;2022-10-13T02:53:42;10.33;;;5.13;;
7675;SDS011;3880;51.464;-2.566;2022-10-13T02:56:09;10.30;;;5.23;;
7675;SDS011;3880;51.464;-2.566;2022-10-13T03:01:21;11.27;;;6.00;;
7675;SDS011;3880;51.464;-2.566;2022-10-13T03:03:49;7.67;;;5.07;;
7675;SDS011;3880;51.464;-2.566;2022-10-13T03:19:25;9.03;;;6.03;;
7675;SDS011;3880;51.464;-2.566;2022-10-13T03:21:56;12.83;;;6.50;;
7675;SDS011;3880;51.464;-2.566;2022-10-13T03:24:50;9.90;;;5.73;;
7675;SDS011;3880;51.464;-2.566;2022-10-13T03:44:17;16.93;;;8.87;;
7675;SDS011;3880;51.464;-2.566;2022-10-13T03:47:20;16.20;;;8.00;;
7675;SDS011;3880;51.464;-2.566;2022-10-13T03:49:51;13.70;;;7.80;;
7675;SDS011;3880;51.464;-2.566;2022-10-13T03:52:21;12.83;;;8.70;;
7675;SDS011;3880;51.464;-2.566;2022-10-13T03:54:50;15.40;;;8.53;;
7675;SDS011;3880;51.464;-2.566;2022-10-13T03:57:19;14.63;;;9.13;;
7675;SDS011;3880;51.464;-2.566;2022-10-13T04:06:05;16.33;;;9.13;;
7675;SDS011;3880;51.464;-2.566;2022-10-13T04:08:36;19.13;;;9.73;;
7675;SDS011;3880;51.464;-2.566;2022-10-13T04:11:04;21.53;;;9.73;;
7675;SDS011;3880;51.464;-2.566;2022-10-13T04:13:33;23.97;;;10.60;;
7675;SDS011;3880;51.464;-2.566;2022-10-13T05:00:37;13.40;;;7.13;;
7675;SDS011;3880;51.464;-2.566;2022-10-13T05:03:28;31.87;;;13.17;;
7675;SDS011;3880;51.464;-2.566;2022-10-13T05:06:01;89.30;;;25.60;;
7675;SDS011;3880;51.464;-2.566;2022-10-13T05:12:31;80.57;;;13.23;;
7675;SDS011;3880;51.464;-2.566;2022-10-13T05:15:24;32.10;;;10.10;;
7675;SDS011;3880;51.464;-2.566;2022-10-13T05:35:29;39.73;;;8.07;;
7675;SDS011;3880;51.464;-2.566;2022-10-13T05:41:51;40.67;;;7.43;;
7675;SDS011;3880;51.464;-2.566;2022-10-13T05:47:19;20.20;;;6.73;;
7675;SDS011;3880;51.464;-2.566;2022-10-13T05:49:52;23.13;;;6.93;;
7675;SDS011;3880;51.464;-2.566;2022-10-13T05:55:10;100.70;;;9.50;;
7675;SDS011;3880;51.464;-2.566;2022-10-13T06:07:52;25.43;;;5.73;;
7675;SDS011;3880;51.464;-2.566;2022-10-13T06:08:59;30.67;;;5.77;;
7675;SDS011;3880;51.464;-2.566;2022-10-13T06:11:27;19.57;;;6.43;;
7675;SDS011;3880;51.464;-2.566;2022-10-13T06:14:11;28.93;;;6.60;;
7675;SDS011;3880;51.464;-2.566;2022-10-13T06:24:18;12.93;;;7.43;;
7675;SDS011;3880;51.464;-2.566;2022-10-13T06:31:45;21.80;;;8.67;;
7675;SDS011;3880;51.464;-2.566;2022-10-13T06:37:58;16.77;;;8.00;;
7675;SDS011;3880;51.464;-2.566;2022-10-13T06:40:26;14.47;;;9.17;;
7675;SDS011;3880;51.464;-2.566;2022-10-13T06:42:53;12.13;;;7.87;;
7675;SDS011;3880;51.464;-2.566;2022-10-13T06:56:53;11.97;;;7.67;;
7675;SDS011;3880;51.464;-2.566;2022-10-13T07:09:21;28.60;;;20.10;;
7675;SDS011;3880;51.464;-2.566;2022-10-13T07:12:35;24.13;;;17.03;;
7675;SDS011;3880;51.464;-2.566;2022-10-13T07:15:03;19.77;;;11.30;;
7675;SDS011;3880;51.464;-2.566;2022-10-13T07:17:45;11.03;;;7.90;;
7675;SDS011;3880;51.464;-2.566;2022-10-13T07:20:13;19.40;;;9.90;;
7675;SDS011;3880;51.464;-2.566;2022-10-13T07:22:40;18.23;;;9.97;;
7675;SDS011;3880;51.464;-2.566;2022-10-13T07:25:11;17.70;;;9.20;;
7675;SDS011;3880;51.464;-2.566;2022-10-13T07:27:40;20.57;;;9.33;;
7675;SDS011;3880;51.464;-2.566;2022-10-13T07:30:09;26.63;;;9.80;;
7675;SDS011;3880;51.464;-2.566;2022-10-13T07:32:57;17.43;;;9.00;;
7675;SDS011;3880;51.464;-2.566;2022-10-13T07:35:26;18.33;;;10.63;;
7675;SDS011;3880;51.464;-2.566;2022-10-13T07:41:55;25.23;;;10.17;;
7675;SDS011;3880;51.464;-2.566;2022-10-13T07:44:48;18.20;;;9.27;;
7675;SDS011;3880;51.464;-2.566;2022-10-13T07:47:34;10.70;;;7.37;;
7675;SDS011;3880;51.464;-2.566;2022-10-13T07:50:08;12.67;;;7.67;;
7675;SDS011;3880;51.464;-2.566;2022-10-13T07:56:07;8.73;;;6.10;;
7675;SDS011;3880;51.464;-2.566;2022-10-13T08:12:36;10.73;;;6.20;;
7675;SDS011;3880;51.464;-2.566;2022-10-13T08:15:31;10.40;;;6.07;;
7675;SDS011;3880;51.464;-2.566;2022-10-13T08:18:01;11.23;;;5.80;;
7675;SDS011;3880;51.464;-2.566;2022-10-13T08:20:41;10.60;;;7.27;;
7675;SDS011;3880;51.464;-2.566;2022-10-13T08:23:33;14.43;;;7.10;;
7675;SDS011;3880;51.464;-2.566;2022-10-13T08:26:01;14.07;;;8.10;;
7675;SDS011;3880;51.464;-2.566;2022-10-13T08:28:29;13.80;;;7.73;;
7675;SDS011;3880;51.464;-2.566;2022-10-13T08:30:57;16.47;;;8.97;;
7675;SDS011;3880;51.464;-2.566;2022-10-13T08:33:25;15.20;;;7.60;;
7675;SDS011;3880;51.464;-2.566;2022-10-13T08:35:52;11.20;;;7.90;;
7675;SDS011;3880;51.464;-2.566;2022-10-13T08:38:34;12.17;;;8.17;;
7675;SDS011;3880;51.464;-2.566;2022-10-13T08:41:01;14.53;;;9.53;;
7675;SDS011;3880;51.464;-2.566;2022-10-13T08:43:40;13.40;;;7.67;;
7675;SDS011;3880;51.464;-2.566;2022-10-13T08:52:53;18.40;;;8.50;;
7675;SDS011;3880;51.464;-2.566;2022-10-13T08:55:40;12.00;;;8.13;;
7675;SDS011;3880;51.464;-2.566;2022-10-13T09:01:19;17.67;;;9.60;;
7675;SDS011;3880;51.464;-2.566;2022-10-13T09:03:51;13.80;;;8.47;;
7675;SDS011;3880;51.464;-2.566;2022-10-13T09:06:24;18.77;;;8.77;;
7675;SDS011;3880;51.464;-2.566;2022-10-13T09:09:09;13.80;;;9.10;;
7675;SDS011;3880;51.464;-2.566;2022-10-13T09:11:41;19.23;;;9.20;;
7675;SDS011;3880;51.464;-2.566;2022-10-13T09:14:32;13.67;;;8.53;;
7675;SDS011;3880;51.464;-2.566;2022-10-13T09:20:14;15.30;;;8.63;;
7675;SDS011;3880;51.464;-2.566;2022-10-13T09:22:59;14.97;;;8.90;;
7675;SDS011;3880;51.464;-2.566;2022-10-13T09:25:28;15.90;;;9.20;;
7675;SDS011;3880;51.464;-2.566;2022-10-13T09:34:41;13.80;;;8.83;;
7675;SDS011;3880;51.464;-2.566;2022-10-13T09:37:16;18.53;;;9.47;;
7675;SDS011;3880;51.464;-2.566;2022-10-13T09:39:58;15.10;;;9.20;;
7675;SDS011;3880;51.464;-2.566;2022-10-13T09:43:24;12.87;;;9.70;;
7675;SDS011;3880;51.464;-2.566;2022-10-13T09:45:55;14.93;;;10.03;;
7675;SDS011;3880;51.464;-2.566;2022-10-13T09:48:25;17.20;;;10.40;;
7675;SDS011;3880;51.464;-2.566;2022-10-13T09:50:54;19.10;;;10.43;;
7675;SDS011;3880;51.464;-2.566;2022-10-13T09:53:25;19.90;;;11.30;;
7675;SDS011;3880;51.464;-2.566;2022-10-13T09:58:50;17.53;;;11.53;;
7675;SDS011;3880;51.464;-2.566;2022-10-13T10:01:36;15.87;;;9.17;;
7675;SDS011;3880;51.464;-2.566;2022-10-13T10:04:14;14.73;;;10.57;;
7675;SDS011;3880;51.464;-2.566;2022-10-13T10:06:47;13.53;;;9.33;;
7675;SDS011;3880;51.464;-2.566;2022-10-13T10:12:00;15.80;;;10.00;;
7675;SDS011;3880;51.464;-2.566;2022-10-13T10:14:31;12.83;;;10.10;;
7675;SDS011;3880;51.464;-2.566;2022-10-13T10:17:03;16.40;;;9.38;;
7675;SDS011;3880;51.464;-2.566;2022-10-13T10:19:41;12.95;;;8.38;;
7675;SDS011;3880;51.464;-2.566;2022-10-13T10:22:21;12.15;;;7.43;;
7675;SDS011;3880;51.464;-2.566;2022-10-13T10:24:58;14.45;;;7.47;;
7675;SDS011;3880;51.464;-2.566;2022-10-13T10:27:35;10.20;;;5.82;;
7675;SDS011;3880;51.464;-2.566;2022-10-13T10:30:11;13.30;;;6.25;;
7675;SDS011;3880;51.464;-2.566;2022-10-13T10:32:42;12.40;;;6.20;;
7675;SDS011;3880;51.464;-2.566;2022-10-13T10:35:19;13.63;;;6.07;;
7675;SDS011;3880;51.464;-2.566;2022-10-13T10:37:56;12.77;;;5.95;;
7675;SDS011;3880;51.464;-2.566;2022-10-13T10:40:33;9.20;;;6.25;;
7675;SDS011;3880;51.464;-2.566;2022-10-13T10:45:54;11.32;;;6.70;;
7675;SDS011;3880;51.464;-2.566;2022-10-13T10:48:24;13.97;;;7.03;;
7675;SDS011;3880;51.464;-2.566;2022-10-13T10:50:57;15.57;;;7.53;;
7675;SDS011;3880;51.464;-2.566;2022-10-13T10:53:28;10.90;;;7.90;;
7675;SDS011;3880;51.464;-2.566;2022-10-13T10:56:03;11.27;;;7.30;;
7675;SDS011;3880;51.464;-2.566;2022-10-13T10:58:38;10.30;;;6.30;;
7675;SDS011;3880;51.464;-2.566;2022-10-13T11:01:18;11.63;;;5.40;;
7675;SDS011;3880;51.464;-2.566;2022-10-13T11:03:53;11.73;;;5.50;;
7675;SDS011;3880;51.464;-2.566;2022-10-13T11:06:30;9.60;;;4.77;;
7675;SDS011;3880;51.464;-2.566;2022-10-13T11:08:59;9.57;;;4.78;;
7675;SDS011;3880;51.464;-2.566;2022-10-13T11:11:34;10.23;;;3.67;;
7675;SDS011;3880;51.464;-2.566;2022-10-13T11:14:18;9.80;;;3.72;;
7675;SDS011;3880;51.464;-2.566;2022-10-13T11:17:08;10.82;;;3.58;;
7675;SDS011;3880;51.464;-2.566;2022-10-13T11:19:42;10.05;;;3.30;;
7675;SDS011;3880;51.464;-2.566;2022-10-13T11:22:15;7.07;;;3.78;;
7675;SDS011;3880;51.464;-2.566;2022-10-13T11:24:54;10.10;;;3.97;;
7675;SDS011;3880;51.464;-2.566;2022-10-13T11:27:37;9.77;;;3.63;;
7675;SDS011;3880;51.464;-2.566;2022-10-13T11:39:21;8.73;;;3.55;;
7675;SDS011;3880;51.464;-2.566;2022-10-13T11:42:21;9.25;;;4.13;;
7675;SDS011;3880;51.464;-2.566;2022-10-13T11:45:12;7.57;;;3.45;;
7675;SDS011;3880;51.464;-2.566;2022-10-13T11:47:52;5.10;;;3.53;;
7675;SDS011;3880;51.464;-2.566;2022-10-13T11:50:34;7.03;;;3.92;;
7675;SDS011;3880;51.464;-2.566;2022-10-13T11:53:13;8.75;;;3.95;;
7675;SDS011;3880;51.464;-2.566;2022-10-13T11:55:46;8.23;;;4.07;;
7675;SDS011;3880;51.464;-2.566;2022-10-13T11:58:16;7.90;;;3.60;;
7675;SDS011;3880;51.464;-2.566;2022-10-13T12:00:52;9.63;;;3.72;;
7675;SDS011;3880;51.464;-2.566;2022-10-13T12:03:21;6.97;;;3.60;;
7675;SDS011;3880;51.464;-2.566;2022-10-13T12:05:52;5.38;;;3.10;;
7675;SDS011;3880;51.464;-2.566;2022-10-13T12:08:22;7.00;;;3.20;;
7675;SDS011;3880;51.464;-2.566;2022-10-13T12:10:52;6.60;;;3.13;;
7675;SDS011;3880;51.464;-2.566;2022-10-13T12:13:22;6.18;;;3.35;;
7675;SDS011;3880;51.464;-2.566;2022-10-13T12:15:58;7.13;;;3.08;;
7675;SDS011;3880;51.464;-2.566;2022-10-13T12:18:28;7.43;;;3.35;;
7675;SDS011;3880;51.464;-2.566;2022-10-13T12:20:59;6.80;;;3.55;;
7675;SDS011;3880;51.464;-2.566;2022-10-13T12:23:27;6.18;;;3.33;;
7675;SDS011;3880;51.464;-2.566;2022-10-13T12:25:57;11.13;;;6.22;;
7675;SDS011;3880;51.464;-2.566;2022-10-13T12:28:25;8.15;;;3.78;;
7675;SDS011;3880;51.464;-2.566;2022-10-13T12:30:55;7.55;;;3.45;;
7675;SDS011;3880;51.464;-2.566;2022-10-13T12:33:27;8.73;;;3.58;;
7675;SDS011;3880;51.464;-2.566;2022-10-13T12:36:09;7.82;;;3.53;;
7675;SDS011;3880;51.464;-2.566;2022-10-13T12:38:47;5.38;;;3.15;;
7675;SDS011;3880;51.464;-2.566;2022-10-13T12:41:18;10.45;;;3.58;;
7675;SDS011;3880;51.464;-2.566;2022-10-13T12:43:49;7.57;;;3.78;;
7675;SDS011;3880;51.464;-2.566;2022-10-13T12:49:03;5.70;;;3.28;;
7675;SDS011;3880;51.464;-2.566;2022-10-13T12:51:31;6.95;;;3.55;;
7675;SDS011;3880;51.464;-2.566;2022-10-13T12:53:59;12.70;;;3.70;;
7675;SDS011;3880;51.464;-2.566;2022-10-13T12:56:34;8.35;;;3.75;;
7675;SDS011;3880;51.464;-2.566;2022-10-13T12:59:01;9.18;;;3.30;;
7675;SDS011;3880;51.464;-2.566;2022-10-13T13:01:29;11.05;;;3.72;;
7675;SDS011;3880;51.464;-2.566;2022-10-13T13:03:59;7.53;;;3.75;;
7675;SDS011;3880;51.464;-2.566;2022-10-13T13:06:34;8.98;;;3.60;;
7675;SDS011;3880;51.464;-2.566;2022-10-13T13:14:51;11.20;;;3.78;;
7675;SDS011;3880;51.464;-2.566;2022-10-13T13:17:21;11.13;;;3.42;;
7675;SDS011;3880;51.464;-2.566;2022-10-13T13:19:49;9.85;;;3.65;;
7675;SDS011;3880;51.464;-2.566;2022-10-13T13:22:17;10.35;;;3.20;;
7675;SDS011;3880;51.464;-2.566;2022-10-13T13:24:45;10.45;;;3.50;;
7675;SDS011;3880;51.464;-2.566;2022-10-13T13:27:16;9.18;;;3.35;;
7675;SDS011;3880;51.464;-2.566;2022-10-13T13:29:47;6.50;;;2.95;;
7675;SDS011;3880;51.464;-2.566;2022-10-13T13:32:16;9.02;;;3.45;;
7675;SDS011;3880;51.464;-2.566;2022-10-13T13:34:44;5.55;;;3.00;;
7675;SDS011;3880;51.464;-2.566;2022-10-13T13:37:12;8.45;;;3.25;;
7675;SDS011;3880;51.464;-2.566;2022-10-13T13:39:42;7.53;;;2.95;;
7675;SDS011;3880;51.464;-2.566;2022-10-13T13:42:11;8.25;;;3.20;;
7675;SDS011;3880;51.464;-2.566;2022-10-13T13:44:39;5.53;;;3.08;;
7675;SDS011;3880;51.464;-2.566;2022-10-13T13:47:18;7.50;;;2.72;;
7675;SDS011;3880;51.464;-2.566;2022-10-13T13:49:46;6.18;;;3.00;;
7675;SDS011;3880;51.464;-2.566;2022-10-13T13:52:14;8.70;;;3.63;;
7675;SDS011;3880;51.464;-2.566;2022-10-13T13:54:42;5.50;;;3.15;;
7675;SDS011;3880;51.464;-2.566;2022-10-13T13:57:09;5.45;;;2.45;;
7675;SDS011;3880;51.464;-2.566;2022-10-13T13:59:37;6.10;;;2.45;;
7675;SDS011;3880;51.464;-2.566;2022-10-13T14:02:04;8.68;;;3.75;;
7675;SDS011;3880;51.464;-2.566;2022-10-13T14:04:34;10.55;;;4.38;;
7675;SDS011;3880;51.464;-2.566;2022-10-13T14:07:01;6.60;;;3.88;;
7675;SDS011;3880;51.464;-2.566;2022-10-13T14:09:28;8.18;;;3.15;;
7675;SDS011;3880;51.464;-2.566;2022-10-13T14:11:55;6.38;;;3.00;;
7675;SDS011;3880;51.464;-2.566;2022-10-13T14:14:23;6.75;;;3.58;;
7675;SDS011;3880;51.464;-2.566;2022-10-13T14:16:50;7.50;;;3.28;;
7675;SDS011;3880;51.464;-2.566;2022-10-13T14:19:17;8.02;;;3.58;;
7675;SDS011;3880;51.464;-2.566;2022-10-13T14:21:46;11.95;;;3.63;;
7675;SDS011;3880;51.464;-2.566;2022-10-13T14:24:13;8.55;;;3.35;;
7675;SDS011;3880;51.464;-2.566;2022-10-13T14:26:40;8.93;;;4.07;;
7675;SDS011;3880;51.464;-2.566;2022-10-13T14:29:07;7.03;;;3.60;;
7675;SDS011;3880;51.464;-2.566;2022-10-13T14:31:34;10.65;;;3.80;;
7675;SDS011;3880;51.464;-2.566;2022-10-13T14:34:01;12.27;;;4.10;;
7675;SDS011;3880;51.464;-2.566;2022-10-13T14:36:27;5.97;;;2.90;;
7675;SDS011;3880;51.464;-2.566;2022-10-13T14:38:56;11.75;;;4.35;;
7675;SDS011;3880;51.464;-2.566;2022-10-13T14:41:23;6.60;;;3.67;;
7675;SDS011;3880;51.464;-2.566;2022-10-13T14:43:50;7.57;;;3.33;;
7675;SDS011;3880;51.464;-2.566;2022-10-13T14:46:19;8.60;;;3.38;;
7675;SDS011;3880;51.464;-2.566;2022-10-13T14:48:46;6.80;;;4.47;;
7675;SDS011;3880;51.464;-2.566;2022-10-13T14:51:13;8.60;;;3.50;;
7675;SDS011;3880;51.464;-2.566;2022-10-13T14:53:41;8.00;;;3.60;;
7675;SDS011;3880;51.464;-2.566;2022-10-13T14:56:17;12.50;;;4.38;;
7675;SDS011;3880;51.464;-2.566;2022-10-13T14:58:45;9.90;;;3.33;;
7675;SDS011;3880;51.464;-2.566;2022-10-13T15:01:13;9.93;;;3.97;;
7675;SDS011;3880;51.464;-2.566;2022-10-13T15:03:41;10.40;;;3.10;;
7675;SDS011;3880;51.464;-2.566;2022-10-13T15:06:09;8.10;;;4.07;;
7675;SDS011;3880;51.464;-2.566;2022-10-13T15:08:39;10.02;;;3.50;;
7675;SDS011;3880;51.464;-2.566;2022-10-13T15:11:07;8.98;;;3.63;;
7675;SDS011;3880;51.464;-2.566;2022-10-13T15:13:35;7.18;;;3.53;;
7675;SDS011;3880;51.464;-2.566;2022-10-13T15:16:03;6.07;;;3.45;;
7675;SDS011;3880;51.464;-2.566;2022-10-13T15:18:31;9.57;;;4.10;;
7675;SDS011;3880;51.464;-2.566;2022-10-13T15:20:59;9.85;;;3.63;;
7675;SDS011;3880;51.464;-2.566;2022-10-13T15:23:26;9.18;;;3.10;;
7675;SDS011;3880;51.464;-2.566;2022-10-13T15:25:53;6.65;;;3.25;;
7675;SDS011;3880;51.464;-2.566;2022-10-13T15:28:22;7.68;;;3.80;;
7675;SDS011;3880;51.464;-2.566;2022-10-13T15:30:51;11.98;;;3.97;;
7675;SDS011;3880;51.464;-2.566;2022-10-13T15:33:19;7.15;;;3.58;;
7675;SDS011;3880;51.464;-2.566;2022-10-13T15:35:46;7.72;;;3.45;;
7675;SDS011;3880;51.464;-2.566;2022-10-13T15:38:14;13.02;;;4.78;;
7675;SDS011;3880;51.464;-2.566;2022-10-13T15:40:41;6.55;;;3.58;;
7675;SDS011;3880;51.464;-2.566;2022-10-13T15:43:08;13.23;;;3.97;;
7675;SDS011;3880;51.464;-2.566;2022-10-13T15:45:36;12.02;;;4.65;;
7675;SDS011;3880;51.464;-2.566;2022-10-13T15:48:05;11.05;;;3.95;;
7675;SDS011;3880;51.464;-2.566;2022-10-13T15:50:34;11.35;;;3.88;;
7675;SDS011;3880;51.464;-2.566;2022-10-13T15:53:04;15.67;;;5.93;;
7675;SDS011;3880;51.464;-2.566;2022-10-13T15:55:31;11.87;;;4.30;;
7675;SDS011;3880;51.464;-2.566;2022-10-13T15:57:58;10.77;;;4.90;;
7675;SDS011;3880;51.464;-2.566;2022-10-13T16:00:26;8.77;;;4.37;;
7675;SDS011;3880;51.464;-2.566;2022-10-13T16:02:53;10.53;;;4.27;;
7675;SDS011;3880;51.464;-2.566;2022-10-13T16:05:22;14.30;;;4.57;;
7675;SDS011;3880;51.464;-2.566;2022-10-13T16:07:49;10.13;;;4.80;;
7675;SDS011;3880;51.464;-2.566;2022-10-13T16:10:16;15.77;;;5.13;;
7675;SDS011;3880;51.464;-2.566;2022-10-13T16:12:43;12.23;;;5.53;;
7675;SDS011;3880;51.464;-2.566;2022-10-13T16:15:10;11.30;;;4.40;;
7675;SDS011;3880;51.464;-2.566;2022-10-13T16:17:38;13.00;;;4.03;;
7675;SDS011;3880;51.464;-2.566;2022-10-13T16:20:06;11.07;;;4.27;;
7675;SDS011;3880;51.464;-2.566;2022-10-13T16:22:35;13.60;;;4.70;;
7675;SDS011;3880;51.464;-2.566;2022-10-13T16:25:02;12.43;;;5.07;;
7675;SDS011;3880;51.464;-2.566;2022-10-13T16:27:30;10.80;;;4.13;;
7675;SDS011;3880;51.464;-2.566;2022-10-13T16:29:57;11.30;;;4.33;;
7675;SDS011;3880;51.464;-2.566;2022-10-13T16:32:24;17.33;;;7.77;;
7675;SDS011;3880;51.464;-2.566;2022-10-13T16:34:51;18.10;;;7.73;;
7675;SDS011;3880;51.464;-2.566;2022-10-13T16:37:18;16.33;;;7.10;;
7675;SDS011;3880;51.464;-2.566;2022-10-13T16:39:47;13.33;;;5.10;;
7675;SDS011;3880;51.464;-2.566;2022-10-13T16:42:14;10.30;;;5.93;;
7675;SDS011;3880;51.464;-2.566;2022-10-13T16:44:41;13.60;;;4.77;;
7675;SDS011;3880;51.464;-2.566;2022-10-13T16:47:08;10.57;;;4.50;;
7675;SDS011;3880;51.464;-2.566;2022-10-13T16:49:35;9.77;;;3.63;;
7675;SDS011;3880;51.464;-2.566;2022-10-13T16:52:02;12.80;;;4.23;;
7675;SDS011;3880;51.464;-2.566;2022-10-13T16:54:29;10.43;;;5.07;;
7675;SDS011;3880;51.464;-2.566;2022-10-13T16:56:58;13.57;;;4.30;;
7675;SDS011;3880;51.464;-2.566;2022-10-13T16:59:25;14.77;;;4.33;;
7675;SDS011;3880;51.464;-2.566;2022-10-13T17:01:52;10.47;;;4.57;;
7675;SDS011;3880;51.464;-2.566;2022-10-13T17:04:21;13.83;;;5.13;;
7675;SDS011;3880;51.464;-2.566;2022-10-13T17:06:48;9.87;;;5.43;;
7675;SDS011;3880;51.464;-2.566;2022-10-13T17:09:15;16.83;;;5.23;;
7675;SDS011;3880;51.464;-2.566;2022-10-13T17:11:42;10.87;;;5.03;;
7675;SDS011;3880;51.464;-2.566;2022-10-13T17:14:11;16.23;;;5.37;;
7675;SDS011;3880;51.464;-2.566;2022-10-13T17:16:38;14.83;;;5.23;;
7675;SDS011;3880;51.464;-2.566;2022-10-13T17:19:05;15.43;;;6.40;;
7675;SDS011;3880;51.464;-2.566;2022-10-13T17:21:32;14.50;;;5.60;;
7675;SDS011;3880;51.464;-2.566;2022-10-13T17:23:59;21.13;;;5.57;;
7675;SDS011;3880;51.464;-2.566;2022-10-13T17:26:26;10.47;;;4.83;;
7675;SDS011;3880;51.464;-2.566;2022-10-13T17:28:53;11.60;;;5.13;;
7675;SDS011;3880;51.464;-2.566;2022-10-13T17:31:22;12.87;;;5.27;;
7675;SDS011;3880;51.464;-2.566;2022-10-13T17:33:50;22.00;;;7.07;;
7675;SDS011;3880;51.464;-2.566;2022-10-13T17:36:18;12.57;;;6.67;;
7675;SDS011;3880;51.464;-2.566;2022-10-13T17:38:48;14.63;;;6.57;;
7675;SDS011;3880;51.464;-2.566;2022-10-13T17:41:15;15.17;;;7.13;;
7675;SDS011;3880;51.464;-2.566;2022-10-13T17:43:43;16.70;;;7.53;;
7675;SDS011;3880;51.464;-2.566;2022-10-13T17:46:11;16.70;;;8.07;;
7675;SDS011;3880;51.464;-2.566;2022-10-13T17:48:41;15.90;;;7.03;;
7675;SDS011;3880;51.464;-2.566;2022-10-13T17:51:09;16.60;;;6.87;;
7675;SDS011;3880;51.464;-2.566;2022-10-13T17:53:38;14.80;;;7.27;;
7675;SDS011;3880;51.464;-2.566;2022-10-13T17:56:07;19.53;;;7.47;;
7675;SDS011;3880;51.464;-2.566;2022-10-13T17:58:36;19.03;;;7.30;;
7675;SDS011;3880;51.464;-2.566;2022-10-13T18:01:07;15.10;;;6.37;;
7675;SDS011;3880;51.464;-2.566;2022-10-13T18:03:35;13.10;;;6.40;;
7675;SDS011;3880;51.464;-2.566;2022-10-13T18:06:07;19.57;;;7.57;;
7675;SDS011;3880;51.464;-2.566;2022-10-13T18:08:34;20.57;;;7.67;;
7675;SDS011;3880;51.464;-2.566;2022-10-13T18:11:04;17.97;;;7.33;;
7675;SDS011;3880;51.464;-2.566;2022-10-13T18:13:32;18.03;;;9.00;;
7675;SDS011;3880;51.464;-2.566;2022-10-13T18:16:01;37.13;;;20.23;;
7675;SDS011;3880;51.464;-2.566;2022-10-13T18:18:29;25.40;;;11.50;;
7675;SDS011;3880;51.464;-2.566;2022-10-13T18:20:57;42.20;;;25.70;;
7675;SDS011;3880;51.464;-2.566;2022-10-13T18:23:29;18.47;;;9.13;;
7675;SDS011;3880;51.464;-2.566;2022-10-13T18:25:59;60.23;;;44.10;;
7675;SDS011;3880;51.464;-2.566;2022-10-13T18:28:30;70.17;;;62.60;;
7675;SDS011;3880;51.464;-2.566;2022-10-13T18:31:01;48.47;;;42.27;;
7675;SDS011;3880;51.464;-2.566;2022-10-13T18:33:29;22.93;;;15.67;;
7675;SDS011;3880;51.464;-2.566;2022-10-13T18:35:56;20.00;;;10.50;;
7675;SDS011;3880;51.464;-2.566;2022-10-13T18:38:23;20.27;;;9.27;;
7675;SDS011;3880;51.464;-2.566;2022-10-13T18:40:52;23.13;;;10.23;;
7675;SDS011;3880;51.464;-2.566;2022-10-13T18:43:24;22.17;;;11.27;;
7675;SDS011;3880;51.464;-2.566;2022-10-13T18:45:51;30.60;;;14.17;;
7675;SDS011;3880;51.464;-2.566;2022-10-13T18:48:18;24.17;;;13.03;;
7675;SDS011;3880;51.464;-2.566;2022-10-13T18:50:45;32.20;;;12.03;;
7675;SDS011;3880;51.464;-2.566;2022-10-13T18:53:12;29.13;;;11.40;;
7675;SDS011;3880;51.464;-2.566;2022-10-13T18:55:39;20.93;;;11.27;;
7675;SDS011;3880;51.464;-2.566;2022-10-13T18:58:09;23.43;;;10.00;;
7675;SDS011;3880;51.464;-2.566;2022-10-13T19:00:36;24.07;;;11.00;;
7675;SDS011;3880;51.464;-2.566;2022-10-13T19:03:04;29.47;;;12.87;;
7675;SDS011;3880;51.464;-2.566;2022-10-13T19:05:31;18.80;;;9.93;;
7675;SDS011;3880;51.464;-2.566;2022-10-13T19:08:03;38.47;;;12.70;;
7675;SDS011;3880;51.464;-2.566;2022-10-13T19:10:33;24.40;;;12.23;;
7675;SDS011;3880;51.464;-2.566;2022-10-13T19:13:01;23.43;;;9.37;;
7675;SDS011;3880;51.464;-2.566;2022-10-13T19:15:29;21.97;;;10.40;;
7675;SDS011;3880;51.464;-2.566;2022-10-13T19:17:56;23.53;;;10.47;;
7675;SDS011;3880;51.464;-2.566;2022-10-13T19:20:23;22.67;;;10.93;;
7675;SDS011;3880;51.464;-2.566;2022-10-13T19:22:50;19.80;;;10.53;;
7675;SDS011;3880;51.464;-2.566;2022-10-13T19:25:18;22.33;;;12.13;;
7675;SDS011;3880;51.464;-2.566;2022-10-13T19:27:45;29.37;;;12.43;;
7675;SDS011;3880;51.464;-2.566;2022-10-13T19:30:12;16.37;;;12.07;;
7675;SDS011;3880;51.464;-2.566;2022-10-13T19:32:41;25.30;;;10.57;;
7675;SDS011;3880;51.464;-2.566;2022-10-13T19:35:08;17.43;;;10.47;;
7675;SDS011;3880;51.464;-2.566;2022-10-13T19:37:35;28.47;;;11.07;;
7675;SDS011;3880;51.464;-2.566;2022-10-13T19:40:03;26.37;;;11.60;;
7675;SDS011;3880;51.464;-2.566;2022-10-13T19:42:31;26.03;;;12.33;;
7675;SDS011;3880;51.464;-2.566;2022-10-13T19:44:59;32.80;;;13.33;;
7675;SDS011;3880;51.464;-2.566;2022-10-13T19:47:26;24.13;;;10.73;;
7675;SDS011;3880;51.464;-2.566;2022-10-13T19:49:54;25.13;;;12.33;;
7675;SDS011;3880;51.464;-2.566;2022-10-13T19:52:21;23.00;;;12.77;;
7675;SDS011;3880;51.464;-2.566;2022-10-13T19:54:49;26.67;;;12.27;;
7675;SDS011;3880;51.464;-2.566;2022-10-13T19:57:17;23.43;;;12.23;;
7675;SDS011;3880;51.464;-2.566;2022-10-13T19:59:44;22.27;;;11.90;;
7675;SDS011;3880;51.464;-2.566;2022-10-13T20:02:11;30.03;;;13.50;;
7675;SDS011;3880;51.464;-2.566;2022-10-13T20:04:38;25.60;;;12.23;;
7675;SDS011;3880;51.464;-2.566;2022-10-13T20:07:06;29.53;;;13.73;;
7675;SDS011;3880;51.464;-2.566;2022-10-13T20:09:33;24.30;;;12.53;;
7675;SDS011;3880;51.464;-2.566;2022-10-13T20:12:00;20.80;;;11.07;;
7675;SDS011;3880;51.464;-2.566;2022-10-13T20:14:27;27.47;;;13.07;;
7675;SDS011;3880;51.464;-2.566;2022-10-13T20:16:54;26.60;;;14.43;;
7675;SDS011;3880;51.464;-2.566;2022-10-13T20:19:22;22.40;;;11.90;;
7675;SDS011;3880;51.464;-2.566;2022-10-13T20:21:49;19.77;;;11.60;;